Time;durP1;ratioP1;P1;durP2;ratioP2;P2;SDS_P1;SDS_P2;PMS_P1;PMS_P2;Temp;Humidity;BMP_temperature;BMP_pressure;BME280_temperature;BME280_humidity;BME280_pressure;Samples;Min_cycle;Max_cycle;Signal;HPM_P1;HPM_P2
2023/06/30 00:02:17;;;;;;;7.55;4.82;;;;;;;;;;5071880;28;20034;-66
2023/06/30 00:04:47;;;;;;;7.45;4.80;;;;;;;;;;5051059;28;20032;-66
2023/06/30 00:07:15;;;;;;;7.47;4.72;;;;;;;;;;5049817;28;20430;-67
2023/06/30 00:09:40;;;;;;;8.48;4.90;;;;;;;;;;5064320;28;20093;-65
2023/06/30 00:12:06;;;;;;;10.60;5.07;;;;;;;;;;5065015;28;20020;-65
2023/06/30 00:14:33;;;;;;;7.43;4.60;;;;;;;;;;5070547;28;20235;-68
2023/06/30 00:16:58;;;;;;;7.70;4.85;;;;;;;;;;5050790;28;20100;-65
2023/06/30 00:19:24;;;;;;;6.63;4.83;;;;;;;;;;5050493;28;20024;-64
2023/06/30 00:21:52;;;;;;;9.38;5.28;;;;;;;;;;5058484;28;20250;-66
2023/06/30 00:24:20;;;;;;;7.68;5.43;;;;;;;;;;5052523;28;20423;-65
2023/06/30 00:26:48;;;;;;;9.60;5.43;;;;;;;;;;5057918;28;20027;-64
2023/06/30 00:29:13;;;;;;;8.45;5.57;;;;;;;;;;5057014;28;20028;-66
2023/06/30 00:31:38;;;;;;;9.95;5.43;;;;;;;;;;5079060;28;20518;-65
2023/06/30 00:34:06;;;;;;;10.02;5.10;;;;;;;;;;5075401;28;20019;-66
2023/06/30 00:36:32;;;;;;;8.40;5.10;;;;;;;;;;5059079;28;20016;-66
2023/06/30 00:38:58;;;;;;;7.82;5.43;;;;;;;;;;5050473;28;20029;-67
2023/06/30 00:41:23;;;;;;;8.85;5.18;;;;;;;;;;5069805;28;20016;-65
2023/06/30 00:43:48;;;;;;;9.13;5.72;;;;;;;;;;5060044;28;20779;-66
2023/06/30 00:46:19;;;;;;;8.47;5.30;;;;;;;;;;5045326;28;20591;-66
2023/06/30 00:48:44;;;;;;;6.93;5.18;;;;;;;;;;5044448;28;21579;-64
2023/06/30 00:51:11;;;;;;;10.63;6.03;;;;;;;;;;5068557;28;20116;-67
2023/06/30 00:53:36;;;;;;;8.75;5.85;;;;;;;;;;5070646;28;20840;-68
2023/06/30 00:56:04;;;;;;;9.02;5.85;;;;;;;;;;5061464;28;20027;-65
2023/06/30 00:58:29;;;;;;;7.65;5.63;;;;;;;;;;5054107;28;21155;-66
2023/06/30 01:01:13;;;;;;;8.35;6.00;;;;;;;;;;5065683;28;20028;-67
2023/06/30 01:03:42;;;;;;;9.02;5.63;;;;;;;;;;5062374;28;20067;-65
2023/06/30 01:06:14;;;;;;;8.35;5.60;;;;;;;;;;5056142;28;20477;-66
2023/06/30 01:08:39;;;;;;;8.25;5.63;;;;;;;;;;5053655;28;20260;-66
2023/06/30 01:11:05;;;;;;;8.07;5.80;;;;;;;;;;5085245;28;21151;-66
2023/06/30 01:13:31;;;;;;;9.05;6.35;;;;;;;;;;5070166;28;20474;-68
2023/06/30 01:15:56;;;;;;;11.38;6.15;;;;;;;;;;5068210;28;20175;-67
2023/06/30 01:18:22;;;;;;;9.77;6.28;;;;;;;;;;5096934;28;20050;-66
2023/06/30 01:20:48;;;;;;;9.13;6.30;;;;;;;;;;5066520;28;20024;-67
2023/06/30 01:23:35;;;;;;;8.90;6.15;;;;;;;;;;5074763;28;20031;-65
2023/06/30 01:26:04;;;;;;;8.00;5.65;;;;;;;;;;5066678;28;20047;-66
2023/06/30 01:28:33;;;;;;;8.85;6.60;;;;;;;;;;5077191;28;20043;-65
2023/06/30 01:31:05;;;;;;;8.57;6.07;;;;;;;;;;5081231;28;20067;-66
2023/06/30 01:33:31;;;;;;;10.70;6.25;;;;;;;;;;5087666;28;20604;-66
2023/06/30 01:35:56;;;;;;;11.13;6.45;;;;;;;;;;5097050;28;20061;-66
2023/06/30 01:38:21;;;;;;;10.85;6.40;;;;;;;;;;5082825;28;20398;-66
2023/06/30 01:40:47;;;;;;;10.03;6.77;;;;;;;;;;5086895;28;20094;-66
2023/06/30 01:43:13;;;;;;;10.65;6.70;;;;;;;;;;5080422;28;20363;-65
2023/06/30 01:45:43;;;;;;;10.32;7.13;;;;;;;;;;5070089;28;20030;-63
2023/06/30 01:48:09;;;;;;;10.73;7.15;;;;;;;;;;5073838;28;20043;-65
2023/06/30 01:50:34;;;;;;;10.93;7.38;;;;;;;;;;5092786;27;20176;-65
2023/06/30 01:53:00;;;;;;;9.95;7.20;;;;;;;;;;5102329;27;20019;-66
2023/06/30 01:55:28;;;;;;;9.57;7.05;;;;;;;;;;5076790;28;20043;-64
2023/06/30 01:57:56;;;;;;;10.15;7.72;;;;;;;;;;5072277;28;20012;-64
2023/06/30 02:00:21;;;;;;;11.57;7.15;;;;;;;;;;5082154;27;20101;-64
2023/06/30 02:02:46;;;;;;;11.68;7.32;;;;;;;;;;5069549;28;20019;-64
2023/06/30 02:05:12;;;;;;;11.02;8.05;;;;;;;;;;5066033;28;20333;-66
2023/06/30 02:07:37;;;;;;;10.38;8.02;;;;;;;;;;5076275;28;20015;-64
2023/06/30 02:10:05;;;;;;;9.93;6.97;;;;;;;;;;5075682;28;20118;-66
2023/06/30 02:12:30;;;;;;;12.10;8.02;;;;;;;;;;5085217;27;20022;-66
2023/06/30 02:14:55;;;;;;;10.00;7.73;;;;;;;;;;5093879;28;20028;-65
2023/06/30 02:17:27;;;;;;;9.95;8.00;;;;;;;;;;5066964;28;20292;-65
2023/06/30 02:19:55;;;;;;;12.60;8.00;;;;;;;;;;5070474;28;20162;-65
2023/06/30 02:22:20;;;;;;;11.25;7.60;;;;;;;;;;5053285;28;20103;-64
2023/06/30 02:24:46;;;;;;;11.15;7.93;;;;;;;;;;5072777;28;20080;-63
2023/06/30 02:27:11;;;;;;;10.63;7.93;;;;;;;;;;5051875;28;20102;-65
2023/06/30 02:29:36;;;;;;;11.73;8.50;;;;;;;;;;5073563;28;20389;-66
2023/06/30 02:32:01;;;;;;;10.77;7.87;;;;;;;;;;5071350;28;20828;-67
2023/06/30 02:34:27;;;;;;;12.52;8.15;;;;;;;;;;5050494;28;20267;-66
2023/06/30 02:36:54;;;;;;;12.07;8.87;;;;;;;;;;5070823;28;20070;-66
2023/06/30 02:39:19;;;;;;;11.35;8.15;;;;;;;;;;5066123;28;20247;-65
2023/06/30 02:41:45;;;;;;;12.18;8.60;;;;;;;;;;5073736;28;20034;-67
2023/06/30 02:44:10;;;;;;;11.27;8.00;;;;;;;;;;5071334;28;20721;-65
2023/06/30 02:46:35;;;;;;;10.95;7.95;;;;;;;;;;5053582;28;20323;-65
2023/06/30 02:49:00;;;;;;;13.07;8.37;;;;;;;;;;5067161;28;20020;-66
2023/06/30 02:51:26;;;;;;;11.17;8.07;;;;;;;;;;5066737;28;20025;-66
2023/06/30 02:53:51;;;;;;;11.93;8.13;;;;;;;;;;5075581;28;20020;-65
2023/06/30 02:56:18;;;;;;;11.37;7.47;;;;;;;;;;5063993;28;20257;-66
2023/06/30 02:58:44;;;;;;;12.60;8.48;;;;;;;;;;5070177;28;20901;-67
2023/06/30 03:01:09;;;;;;;11.20;7.85;;;;;;;;;;5076411;28;20040;-66
2023/06/30 03:03:37;;;;;;;10.98;8.15;;;;;;;;;;5047831;28;20156;-66
2023/06/30 03:06:02;;;;;;;13.18;9.13;;;;;;;;;;5079261;28;20019;-66
2023/06/30 03:08:30;;;;;;;11.07;8.90;;;;;;;;;;5054216;28;20025;-66
2023/06/30 03:10:55;;;;;;;12.43;8.75;;;;;;;;;;5053640;28;20104;-65
2023/06/30 03:13:21;;;;;;;11.50;8.50;;;;;;;;;;5067509;28;20028;-65
2023/06/30 03:15:46;;;;;;;11.27;8.47;;;;;;;;;;5063424;28;20274;-66
2023/06/30 03:18:11;;;;;;;10.40;8.20;;;;;;;;;;5074874;28;20799;-66
2023/06/30 03:20:36;;;;;;;10.60;7.93;;;;;;;;;;5055577;28;20054;-68
2023/06/30 03:23:02;;;;;;;11.20;8.00;;;;;;;;;;5054149;28;20618;-63
2023/06/30 03:25:29;;;;;;;11.87;8.70;;;;;;;;;;5069302;28;20020;-68
2023/06/30 03:27:54;;;;;;;14.23;9.40;;;;;;;;;;5073654;28;20308;-65
2023/06/30 03:30:20;;;;;;;11.53;8.90;;;;;;;;;;5073399;28;20114;-68
2023/06/30 03:32:45;;;;;;;13.93;9.23;;;;;;;;;;5057505;28;20279;-65
2023/06/30 03:35:10;;;;;;;12.95;9.00;;;;;;;;;;5051511;28;20258;-65
2023/06/30 03:37:38;;;;;;;14.13;9.33;;;;;;;;;;5052008;28;20016;-65
2023/06/30 03:40:06;;;;;;;14.80;9.15;;;;;;;;;;5058252;28;20373;-63
2023/06/30 03:42:34;;;;;;;11.63;8.95;;;;;;;;;;5058666;28;20048;-65
2023/06/30 03:45:00;;;;;;;13.85;8.95;;;;;;;;;;5057201;28;20378;-66
2023/06/30 03:47:25;;;;;;;11.88;8.93;;;;;;;;;;5074607;28;20027;-62
2023/06/30 03:49:53;;;;;;;13.77;8.93;;;;;;;;;;5070191;28;20028;-62
2023/06/30 03:52:18;;;;;;;13.48;9.00;;;;;;;;;;5066326;28;20093;-62
2023/06/30 03:54:43;;;;;;;13.63;9.07;;;;;;;;;;5069115;28;20027;-67
2023/06/30 03:57:11;;;;;;;12.33;9.13;;;;;;;;;;5072058;28;20255;-63
2023/06/30 03:59:36;;;;;;;13.18;10.05;;;;;;;;;;5052396;28;20029;-65
2023/06/30 04:02:01;;;;;;;14.37;9.17;;;;;;;;;;5070318;28;20026;-61
2023/06/30 04:04:26;;;;;;;12.15;8.95;;;;;;;;;;5066531;28;20254;-62
2023/06/30 04:06:52;;;;;;;15.35;9.43;;;;;;;;;;5075791;28;20018;-64
2023/06/30 04:09:20;;;;;;;12.97;9.07;;;;;;;;;;5047484;28;20470;-62
2023/06/30 04:11:48;;;;;;;12.43;9.25;;;;;;;;;;5075461;28;20250;-63
2023/06/30 04:14:15;;;;;;;11.70;8.52;;;;;;;;;;5048040;28;20031;-62
2023/06/30 04:16:41;;;;;;;13.18;9.38;;;;;;;;;;5080668;28;20059;-61
2023/06/30 04:19:08;;;;;;;13.47;8.87;;;;;;;;;;5086764;27;20020;-63
2023/06/30 04:21:34;;;;;;;11.82;9.20;;;;;;;;;;5078630;28;20265;-62
2023/06/30 04:23:59;;;;;;;11.60;8.80;;;;;;;;;;5075175;28;20023;-62
2023/06/30 04:26:24;;;;;;;12.77;8.68;;;;;;;;;;5082880;28;20016;-63
2023/06/30 04:28:49;;;;;;;11.25;8.55;;;;;;;;;;5092690;28;20066;-63
2023/06/30 04:31:15;;;;;;;12.97;8.87;;;;;;;;;;5087209;28;20024;-62
2023/06/30 04:33:40;;;;;;;12.63;9.23;;;;;;;;;;5095944;28;20281;-63
2023/06/30 04:36:08;;;;;;;11.85;8.23;;;;;;;;;;5083130;28;20319;-64
2023/06/30 04:38:34;;;;;;;10.95;8.48;;;;;;;;;;5096861;28;20016;-64
2023/06/30 04:41:01;;;;;;;11.88;8.77;;;;;;;;;;5086169;28;20030;-64
2023/06/30 04:43:26;;;;;;;10.80;8.23;;;;;;;;;;5090688;28;20077;-65
2023/06/30 04:45:51;;;;;;;11.77;8.55;;;;;;;;;;5075976;28;20051;-65
2023/06/30 04:48:17;;;;;;;11.53;8.67;;;;;;;;;;5087505;28;20810;-64
2023/06/30 04:50:44;;;;;;;12.50;9.50;;;;;;;;;;5095066;28;20379;-64
2023/06/30 04:53:12;;;;;;;11.20;8.43;;;;;;;;;;5080138;28;20715;-68
2023/06/30 04:55:40;;;;;;;10.93;8.68;;;;;;;;;;5073193;28;20023;-64
2023/06/30 04:58:05;;;;;;;9.63;7.32;;;;;;;;;;5072405;28;20028;-65
2023/06/30 05:00:30;;;;;;;11.97;9.00;;;;;;;;;;5074130;28;20018;-64
2023/06/30 05:02:56;;;;;;;12.45;8.40;;;;;;;;;;5084174;28;20266;-64
2023/06/30 05:05:21;;;;;;;12.40;8.00;;;;;;;;;;5098787;28;20123;-64
2023/06/30 05:07:46;;;;;;;10.55;8.43;;;;;;;;;;5086499;28;20035;-63
2023/06/30 05:10:12;;;;;;;11.75;8.75;;;;;;;;;;5085496;28;21343;-65
2023/06/30 05:12:39;;;;;;;10.30;8.27;;;;;;;;;;5089394;28;20035;-65
2023/06/30 05:15:05;;;;;;;14.80;8.55;;;;;;;;;;5075977;28;20377;-66
2023/06/30 05:17:30;;;;;;;9.70;7.95;;;;;;;;;;5077965;28;20141;-64
2023/06/30 05:19:56;;;;;;;11.37;8.10;;;;;;;;;;5077925;28;20030;-66
2023/06/30 05:22:21;;;;;;;11.27;8.70;;;;;;;;;;5072006;28;20289;-64
2023/06/30 05:24:47;;;;;;;12.17;8.40;;;;;;;;;;5091212;27;20249;-64
2023/06/30 05:27:14;;;;;;;10.48;8.35;;;;;;;;;;5094121;27;20130;-65
2023/06/30 05:29:39;;;;;;;16.15;8.07;;;;;;;;;;5075014;28;20089;-65
2023/06/30 05:32:04;;;;;;;10.83;8.23;;;;;;;;;;5094073;28;20023;-63
2023/06/30 05:34:30;;;;;;;10.38;7.72;;;;;;;;;;5092625;28;21178;-65
2023/06/30 05:36:55;;;;;;;10.50;8.40;;;;;;;;;;5097061;27;20023;-64
2023/06/30 05:39:21;;;;;;;9.88;7.55;;;;;;;;;;5086207;28;20023;-66
2023/06/30 05:41:46;;;;;;;10.55;7.88;;;;;;;;;;5079211;27;20667;-65
2023/06/30 05:44:12;;;;;;;9.63;7.47;;;;;;;;;;5094596;27;20104;-66
2023/06/30 05:46:37;;;;;;;10.25;8.45;;;;;;;;;;5089686;28;20254;-65
2023/06/30 05:49:05;;;;;;;12.90;7.93;;;;;;;;;;5101848;27;20024;-64
2023/06/30 05:51:33;;;;;;;10.07;7.88;;;;;;;;;;5070820;28;20123;-65
2023/06/30 05:54:01;;;;;;;10.70;7.32;;;;;;;;;;5079109;28;20015;-63
2023/06/30 05:56:27;;;;;;;11.55;8.30;;;;;;;;;;5093770;27;20030;-65
2023/06/30 05:58:54;;;;;;;10.23;6.95;;;;;;;;;;5069357;28;20015;-66
2023/06/30 06:01:20;;;;;;;10.00;8.20;;;;;;;;;;5090328;27;20012;-65
2023/06/30 06:03:45;;;;;;;10.90;7.53;;;;;;;;;;5070832;27;20031;-66
2023/06/30 06:06:13;;;;;;;9.93;7.70;;;;;;;;;;5076203;28;20188;-65
2023/06/30 06:08:48;;;;;;;11.30;8.25;;;;;;;;;;5081046;28;20020;-65
2023/06/30 06:11:13;;;;;;;10.18;7.82;;;;;;;;;;5087770;28;20042;-67
2023/06/30 06:13:39;;;;;;;11.05;7.20;;;;;;;;;;5077536;28;20008;-66
2023/06/30 06:16:07;;;;;;;9.43;7.57;;;;;;;;;;5073907;28;20039;-64
2023/06/30 06:18:33;;;;;;;10.55;7.43;;;;;;;;;;5072700;28;20111;-65
2023/06/30 06:21:01;;;;;;;11.05;7.35;;;;;;;;;;5070694;28;20016;-65
2023/06/30 06:23:26;;;;;;;12.60;7.93;;;;;;;;;;5083664;28;20019;-64
2023/06/30 06:25:54;;;;;;;9.02;6.68;;;;;;;;;;5090750;28;20023;-65
2023/06/30 06:28:24;;;;;;;10.68;7.82;;;;;;;;;;5070368;28;20107;-65
2023/06/30 06:30:52;;;;;;;10.07;7.32;;;;;;;;;;5076669;28;20107;-66
2023/06/30 06:33:20;;;;;;;10.80;7.13;;;;;;;;;;5074489;27;20031;-65
2023/06/30 06:35:45;;;;;;;8.70;6.70;;;;;;;;;;5072082;28;20019;-64
2023/06/30 06:38:10;;;;;;;10.48;7.00;;;;;;;;;;5088392;27;20028;-66
2023/06/30 06:40:36;;;;;;;10.23;7.07;;;;;;;;;;5087538;28;20020;-68
2023/06/30 06:43:03;;;;;;;11.67;7.23;;;;;;;;;;5091499;28;20018;-65
2023/06/30 06:45:28;;;;;;;10.98;7.38;;;;;;;;;;5068600;28;20262;-65
2023/06/30 06:48:12;;;;;;;10.27;7.13;;;;;;;;;;5092096;27;20583;-66
2023/06/30 06:50:37;;;;;;;11.25;7.45;;;;;;;;;;5088183;27;20034;-66
2023/06/30 06:53:03;;;;;;;10.40;6.80;;;;;;;;;;5067213;28;20028;-65
2023/06/30 06:55:30;;;;;;;9.50;7.10;;;;;;;;;;5087704;27;20019;-65
2023/06/30 06:57:55;;;;;;;9.13;6.68;;;;;;;;;;5071757;28;20929;-66
2023/06/30 07:00:23;;;;;;;11.70;6.93;;;;;;;;;;5088600;27;20026;-66
2023/06/30 07:02:48;;;;;;;10.57;6.88;;;;;;;;;;5058192;28;20716;-66
2023/06/30 07:05:13;;;;;;;8.98;6.35;;;;;;;;;;5092205;27;20123;-65
2023/06/30 07:07:41;;;;;;;10.10;6.67;;;;;;;;;;5088622;27;20024;-66
2023/06/30 07:10:06;;;;;;;8.93;6.70;;;;;;;;;;5094178;28;20304;-66
2023/06/30 07:12:32;;;;;;;8.80;6.20;;;;;;;;;;5068718;28;20111;-66
2023/06/30 07:14:59;;;;;;;8.47;6.57;;;;;;;;;;5091257;27;20103;-66
2023/06/30 07:17:24;;;;;;;9.68;6.45;;;;;;;;;;5073082;28;20289;-66
2023/06/30 07:19:49;;;;;;;8.97;6.17;;;;;;;;;;5094484;27;20031;-66
2023/06/30 07:22:15;;;;;;;8.60;6.47;;;;;;;;;;5089412;28;20034;-65
2023/06/30 07:24:40;;;;;;;8.60;6.28;;;;;;;;;;5090952;28;20653;-65
2023/06/30 07:27:05;;;;;;;8.90;6.27;;;;;;;;;;5090051;28;20027;-65
2023/06/30 07:29:31;;;;;;;9.65;6.40;;;;;;;;;;5071741;28;20730;-66
2023/06/30 07:31:56;;;;;;;8.67;6.37;;;;;;;;;;5078415;28;20050;-67
2023/06/30 07:34:23;;;;;;;10.87;6.70;;;;;;;;;;5093106;27;20260;-66
2023/06/30 07:36:48;;;;;;;9.85;6.97;;;;;;;;;;5091677;28;20122;-66
2023/06/30 07:39:16;;;;;;;8.30;6.32;;;;;;;;;;5065996;28;20042;-65
2023/06/30 07:41:42;;;;;;;10.93;7.30;;;;;;;;;;5090388;27;20030;-67
2023/06/30 07:44:11;;;;;;;11.53;6.60;;;;;;;;;;5094642;27;20012;-66
2023/06/30 07:46:39;;;;;;;10.27;7.00;;;;;;;;;;5067151;28;20105;-66
2023/06/30 07:49:06;;;;;;;9.43;6.75;;;;;;;;;;5094266;27;20031;-66
2023/06/30 07:51:32;;;;;;;9.20;6.90;;;;;;;;;;5074110;28;20107;-66
2023/06/30 07:53:57;;;;;;;8.97;6.23;;;;;;;;;;5089088;28;20525;-65
2023/06/30 07:56:23;;;;;;;12.17;7.30;;;;;;;;;;5074118;28;20069;-65
2023/06/30 07:58:48;;;;;;;8.68;6.70;;;;;;;;;;5090428;28;20258;-66
2023/06/30 08:01:13;;;;;;;10.17;7.20;;;;;;;;;;5093188;28;20036;-66
2023/06/30 08:03:39;;;;;;;9.98;6.90;;;;;;;;;;5084715;27;20024;-65
2023/06/30 08:06:06;;;;;;;9.63;6.38;;;;;;;;;;5086686;28;20614;-64
2023/06/30 08:08:32;;;;;;;10.25;6.97;;;;;;;;;;5085572;28;20051;-65
2023/06/30 08:10:59;;;;;;;9.55;6.75;;;;;;;;;;5094135;27;20499;-65
2023/06/30 08:13:27;;;;;;;9.45;6.25;;;;;;;;;;5079277;28;20027;-65
2023/06/30 08:15:53;;;;;;;9.75;6.45;;;;;;;;;;5075449;28;20047;-65
2023/06/30 08:18:18;;;;;;;9.30;6.73;;;;;;;;;;5070875;28;20022;-65
2023/06/30 08:20:43;;;;;;;12.77;7.60;;;;;;;;;;5085180;28;20254;-66
2023/06/30 08:23:12;;;;;;;8.82;6.25;;;;;;;;;;5068163;28;20638;-65
2023/06/30 08:25:37;;;;;;;8.85;6.32;;;;;;;;;;5086820;28;20020;-65
2023/06/30 08:28:02;;;;;;;8.43;6.37;;;;;;;;;;5076393;28;20657;-65
2023/06/30 08:30:27;;;;;;;8.98;6.25;;;;;;;;;;5088852;28;20273;-66
2023/06/30 08:32:55;;;;;;;10.43;6.50;;;;;;;;;;5074709;28;20487;-65
2023/06/30 08:35:20;;;;;;;9.15;6.70;;;;;;;;;;5089101;28;20767;-65
2023/06/30 08:37:48;;;;;;;9.73;6.60;;;;;;;;;;5093144;27;20023;-65
2023/06/30 08:40:20;;;;;;;8.35;5.90;;;;;;;;;;5065268;28;20564;-66
2023/06/30 08:42:50;;;;;;;9.10;6.55;;;;;;;;;;5083005;28;20020;-66
2023/06/30 08:45:16;;;;;;;9.25;6.70;;;;;;;;;;5079848;28;20123;-65
2023/06/30 08:47:41;;;;;;;9.57;6.28;;;;;;;;;;5088972;28;20398;-66
2023/06/30 08:50:08;;;;;;;9.80;6.60;;;;;;;;;;5091628;28;20081;-67
2023/06/30 08:52:36;;;;;;;8.45;6.78;;;;;;;;;;5082513;28;20027;-67
2023/06/30 08:55:04;;;;;;;9.15;6.72;;;;;;;;;;5077630;28;20396;-66
2023/06/30 08:57:29;;;;;;;8.77;6.05;;;;;;;;;;5083127;27;20020;-66
2023/06/30 08:59:55;;;;;;;8.63;6.10;;;;;;;;;;5089563;27;20026;-66
2023/06/30 09:02:22;;;;;;;9.38;6.38;;;;;;;;;;5075009;28;20564;-66
2023/06/30 09:04:47;;;;;;;9.43;6.22;;;;;;;;;;5090853;28;21354;-65
2023/06/30 09:07:19;;;;;;;9.10;6.00;;;;;;;;;;5083766;27;20016;-66
2023/06/30 09:09:49;;;;;;;8.77;5.68;;;;;;;;;;5070947;28;20057;-66
2023/06/30 09:12:17;;;;;;;8.50;6.05;;;;;;;;;;5078644;28;20028;-67
2023/06/30 09:14:44;;;;;;;7.43;5.70;;;;;;;;;;5076451;28;20016;-67
2023/06/30 09:17:12;;;;;;;8.90;5.38;;;;;;;;;;5066505;27;20084;-67
2023/06/30 09:19:38;;;;;;;9.52;5.78;;;;;;;;;;5095067;28;20043;-67
2023/06/30 09:22:04;;;;;;;9.57;5.93;;;;;;;;;;5092564;27;20020;-67
2023/06/30 09:24:30;;;;;;;8.80;5.95;;;;;;;;;;5073920;28;20035;-66
2023/06/30 09:26:57;;;;;;;8.03;5.40;;;;;;;;;;5070166;28;20115;-66
2023/06/30 09:29:32;;;;;;;7.78;5.57;;;;;;;;;;5067616;28;20373;-66
2023/06/30 09:32:02;;;;;;;7.57;5.75;;;;;;;;;;5077037;28;20020;-67
2023/06/30 09:34:29;;;;;;;7.28;5.43;;;;;;;;;;5087278;27;20008;-66
2023/06/30 09:36:55;;;;;;;8.50;5.50;;;;;;;;;;5077622;28;20028;-66
2023/06/30 09:39:21;;;;;;;7.47;5.57;;;;;;;;;;5072478;28;20156;-67
2023/06/30 09:41:47;;;;;;;8.20;5.47;;;;;;;;;;5083213;28;20020;-65
2023/06/30 09:44:13;;;;;;;8.45;5.57;;;;;;;;;;5072241;28;20031;-65
2023/06/30 09:46:52;;;;;;;8.38;5.88;;;;;;;;;;5092837;27;20383;-66
2023/06/30 09:49:23;;;;;;;8.80;5.53;;;;;;;;;;5079976;28;20031;-66
2023/06/30 09:51:49;;;;;;;10.65;5.20;;;;;;;;;;5085192;27;20023;-66
2023/06/30 09:54:16;;;;;;;9.00;5.85;;;;;;;;;;5077160;28;20045;-66
2023/06/30 09:56:45;;;;;;;7.70;5.32;;;;;;;;;;5091228;28;20015;-65
2023/06/30 09:59:13;;;;;;;8.07;5.40;;;;;;;;;;5082735;28;20027;-67
2023/06/30 10:01:41;;;;;;;7.13;4.88;;;;;;;;;;5095572;27;20011;-67
2023/06/30 10:04:06;;;;;;;7.57;5.38;;;;;;;;;;5098770;27;20027;-67
2023/06/30 10:06:32;;;;;;;8.48;5.30;;;;;;;;;;5097636;27;20020;-66
2023/06/30 10:09:01;;;;;;;9.30;5.70;;;;;;;;;;5087052;27;20112;-66
2023/06/30 10:11:29;;;;;;;8.73;4.85;;;;;;;;;;5085784;27;20017;-66
2023/06/30 10:13:57;;;;;;;7.55;4.82;;;;;;;;;;5079250;28;21385;-67
2023/06/30 10:16:23;;;;;;;7.60;4.82;;;;;;;;;;5079676;28;20048;-66
2023/06/30 10:18:50;;;;;;;8.35;4.70;;;;;;;;;;5075757;28;20505;-66
2023/06/30 10:21:15;;;;;;;7.10;4.80;;;;;;;;;;5074303;28;20012;-65
2023/06/30 10:23:42;;;;;;;7.65;4.50;;;;;;;;;;5086396;27;20024;-64
2023/06/30 10:26:08;;;;;;;8.55;5.20;;;;;;;;;;5096818;27;20027;-68
2023/06/30 10:28:34;;;;;;;6.90;4.90;;;;;;;;;;5086195;28;20019;-69
2023/06/30 10:31:02;;;;;;;7.13;4.82;;;;;;;;;;5094092;27;20027;-68
2023/06/30 10:33:30;;;;;;;9.65;4.82;;;;;;;;;;5093396;28;20023;-67
2023/06/30 10:35:56;;;;;;;7.43;4.80;;;;;;;;;;5070545;27;20496;-66
2023/06/30 10:38:21;;;;;;;8.02;4.82;;;;;;;;;;5094275;28;20012;-67
2023/06/30 10:40:47;;;;;;;7.97;4.83;;;;;;;;;;5076707;27;20093;-66
2023/06/30 10:43:13;;;;;;;8.00;4.53;;;;;;;;;;5091197;27;21222;-67
2023/06/30 10:45:57;;;;;;;7.60;4.55;;;;;;;;;;5066861;28;20016;-66
2023/06/30 10:48:26;;;;;;;6.95;5.07;;;;;;;;;;5088398;28;20522;-65
2023/06/30 10:50:52;;;;;;;7.93;5.03;;;;;;;;;;5092109;27;20027;-64
2023/06/30 10:53:20;;;;;;;8.10;4.95;;;;;;;;;;5076256;28;20091;-65
2023/06/30 10:55:46;;;;;;;7.38;4.68;;;;;;;;;;5096601;28;20165;-66
2023/06/30 10:58:20;;;;;;;8.10;4.93;;;;;;;;;;5077710;28;20031;-66
2023/06/30 11:01:09;;;;;;;7.45;5.10;;;;;;;;;;5092209;28;20031;-65
2023/06/30 11:04:00;;;;;;;6.90;4.83;;;;;;;;;;5079864;27;20043;-66
2023/06/30 11:06:25;;;;;;;7.47;4.65;;;;;;;;;;5051958;28;20483;-65
2023/06/30 11:09:03;;;;;;;7.28;4.88;;;;;;;;;;5082080;28;20019;-66
2023/06/30 11:11:28;;;;;;;6.90;4.72;;;;;;;;;;5073889;28;20035;-68
2023/06/30 11:14:04;;;;;;;7.00;4.93;;;;;;;;;;5067475;28;20028;-66
2023/06/30 11:16:30;;;;;;;7.07;4.55;;;;;;;;;;5072697;28;20077;-65
2023/06/30 11:19:01;;;;;;;6.55;4.35;;;;;;;;;;5087106;27;20027;-67
2023/06/30 11:21:26;;;;;;;6.95;5.15;;;;;;;;;;5073463;28;20059;-66
2023/06/30 11:23:52;;;;;;;7.40;4.63;;;;;;;;;;5074947;28;20119;-65
2023/06/30 11:26:18;;;;;;;7.88;4.78;;;;;;;;;;5089149;28;20048;-65
2023/06/30 11:28:45;;;;;;;7.22;4.57;;;;;;;;;;5090437;28;20556;-66
2023/06/30 11:31:11;;;;;;;6.93;4.50;;;;;;;;;;5083908;27;20112;-65
2023/06/30 11:33:40;;;;;;;10.32;5.78;;;;;;;;;;5098067;27;20016;-65
2023/06/30 11:36:11;;;;;;;13.52;10.18;;;;;;;;;;5075070;27;20145;-65
2023/06/30 11:38:42;;;;;;;12.95;10.00;;;;;;;;;;5072818;28;21278;-65
2023/06/30 11:41:08;;;;;;;12.02;9.18;;;;;;;;;;5089393;28;20034;-66
2023/06/30 11:43:33;;;;;;;9.90;8.50;;;;;;;;;;5061252;28;20024;-65
2023/06/30 11:46:01;;;;;;;14.07;8.50;;;;;;;;;;5088821;27;20020;-67
2023/06/30 11:48:37;;;;;;;13.60;11.15;;;;;;;;;;5070696;28;20757;-67
2023/06/30 11:51:02;;;;;;;14.63;12.10;;;;;;;;;;5089768;28;20051;-66
2023/06/30 11:53:29;;;;;;;16.60;11.83;;;;;;;;;;5080568;28;20732;-67
2023/06/30 11:55:56;;;;;;;15.32;12.40;;;;;;;;;;5088841;28;20763;-64
2023/06/30 11:58:21;;;;;;;13.93;12.30;;;;;;;;;;5092299;28;20053;-67
2023/06/30 12:00:47;;;;;;;15.98;13.40;;;;;;;;;;5062919;28;20039;-64
2023/06/30 12:03:17;;;;;;;15.63;13.77;;;;;;;;;;5088348;28;20695;-65
2023/06/30 12:05:42;;;;;;;18.00;14.13;;;;;;;;;;5063025;28;20103;-65
2023/06/30 12:08:07;;;;;;;16.90;14.18;;;;;;;;;;5065873;27;20015;-64
2023/06/30 12:10:36;;;;;;;15.80;14.18;;;;;;;;;;5078654;27;20027;-66
2023/06/30 12:13:05;;;;;;;15.23;13.17;;;;;;;;;;5073669;28;20538;-67
2023/06/30 12:15:31;;;;;;;14.98;13.15;;;;;;;;;;5073258;28;20258;-67
2023/06/30 12:17:57;;;;;;;15.52;13.85;;;;;;;;;;5073118;28;20028;-67
2023/06/30 12:20:35;;;;;;;15.65;13.95;;;;;;;;;;5078269;28;20311;-66
2023/06/30 12:23:00;;;;;;;14.70;13.13;;;;;;;;;;5079596;27;20022;-64
2023/06/30 12:25:29;;;;;;;15.82;13.20;;;;;;;;;;5083674;28;20020;-67
2023/06/30 12:27:57;;;;;;;16.45;14.18;;;;;;;;;;5080739;28;20035;-65
2023/06/30 12:30:23;;;;;;;15.30;13.60;;;;;;;;;;5089307;28;20079;-66
2023/06/30 12:32:55;;;;;;;15.32;13.73;;;;;;;;;;5083608;28;20438;-66
2023/06/30 12:35:27;;;;;;;13.90;12.50;;;;;;;;;;5066686;28;20024;-63
2023/06/30 12:37:52;;;;;;;15.50;12.40;;;;;;;;;;5074689;28;20063;-64
2023/06/30 12:40:19;;;;;;;13.03;11.53;;;;;;;;;;5088821;28;20102;-65
2023/06/30 12:42:45;;;;;;;15.32;12.98;;;;;;;;;;5066820;28;20953;-66
2023/06/30 12:45:10;;;;;;;16.10;13.40;;;;;;;;;;5078439;28;20012;-65
2023/06/30 12:47:35;;;;;;;15.32;12.75;;;;;;;;;;5092365;28;20034;-67
2023/06/30 12:50:02;;;;;;;14.10;12.50;;;;;;;;;;5090403;28;20546;-66
2023/06/30 12:52:32;;;;;;;13.63;12.00;;;;;;;;;;5075759;28;20122;-66
2023/06/30 12:54:57;;;;;;;14.30;12.20;;;;;;;;;;5072844;28;20106;-64
2023/06/30 12:57:23;;;;;;;14.93;11.60;;;;;;;;;;5090909;28;20016;-64
2023/06/30 12:59:50;;;;;;;14.70;11.97;;;;;;;;;;5077080;28;20269;-66
2023/06/30 13:02:16;;;;;;;15.65;11.73;;;;;;;;;;5084661;28;20254;-63
2023/06/30 13:04:41;;;;;;;14.35;11.95;;;;;;;;;;5072208;28;20065;-65
2023/06/30 13:07:08;;;;;;;15.17;11.20;;;;;;;;;;5083643;28;20058;-64
2023/06/30 13:09:33;;;;;;;10.95;8.93;;;;;;;;;;5073202;28;20277;-63
2023/06/30 13:12:01;;;;;;;11.77;10.10;;;;;;;;;;5088497;28;20367;-63
2023/06/30 13:14:27;;;;;;;14.88;12.18;;;;;;;;;;5072599;28;21621;-66
2023/06/30 13:16:54;;;;;;;11.90;10.33;;;;;;;;;;5086960;28;20047;-63
2023/06/30 13:19:23;;;;;;;11.98;9.07;;;;;;;;;;5067336;28;20261;-64
2023/06/30 13:21:48;;;;;;;16.10;10.90;;;;;;;;;;5066750;28;20016;-68
2023/06/30 13:24:13;;;;;;;14.32;10.70;;;;;;;;;;5067059;28;20254;-64
2023/06/30 13:26:39;;;;;;;14.18;10.75;;;;;;;;;;5096133;28;20417;-64
2023/06/30 13:29:04;;;;;;;12.93;10.38;;;;;;;;;;5070477;28;20028;-63
2023/06/30 13:31:29;;;;;;;14.07;11.47;;;;;;;;;;5093822;28;20153;-66
2023/06/30 13:33:57;;;;;;;13.73;10.57;;;;;;;;;;5089760;28;21039;-65
2023/06/30 13:36:22;;;;;;;12.10;9.63;;;;;;;;;;5089353;28;20115;-68
2023/06/30 13:38:47;;;;;;;12.50;8.68;;;;;;;;;;5086986;28;20424;-67
2023/06/30 13:41:12;;;;;;;12.65;9.02;;;;;;;;;;5083569;28;20027;-64
2023/06/30 13:43:38;;;;;;;10.68;8.68;;;;;;;;;;5090166;28;20016;-65
2023/06/30 13:46:04;;;;;;;11.03;8.57;;;;;;;;;;5087817;28;20665;-69
2023/06/30 13:48:29;;;;;;;13.25;8.68;;;;;;;;;;5080878;28;20264;-62
2023/06/30 13:50:55;;;;;;;12.38;9.07;;;;;;;;;;5073902;27;20032;-67
2023/06/30 13:53:20;;;;;;;10.35;8.82;;;;;;;;;;5095605;27;20080;-65
2023/06/30 13:55:45;;;;;;;11.63;8.33;;;;;;;;;;5073613;28;20066;-63
2023/06/30 13:58:13;;;;;;;13.70;8.17;;;;;;;;;;5105055;27;20253;-65
2023/06/30 14:00:38;;;;;;;12.30;8.85;;;;;;;;;;5077020;28;20129;-66
2023/06/30 14:03:06;;;;;;;12.35;8.75;;;;;;;;;;5072399;28;20435;-65
2023/06/30 14:05:31;;;;;;;13.35;9.30;;;;;;;;;;5067000;28;20069;-65
2023/06/30 14:07:59;;;;;;;11.10;9.27;;;;;;;;;;5081158;28;20037;-65
2023/06/30 14:10:24;;;;;;;13.30;9.13;;;;;;;;;;5078100;28;20402;-65
2023/06/30 14:12:50;;;;;;;11.17;9.10;;;;;;;;;;5079220;28;20394;-64
2023/06/30 14:15:15;;;;;;;10.77;8.53;;;;;;;;;;5089890;27;20346;-65
2023/06/30 14:17:40;;;;;;;11.43;8.52;;;;;;;;;;5071015;28;20060;-66
2023/06/30 14:20:06;;;;;;;11.40;8.40;;;;;;;;;;5075581;28;20595;-65
2023/06/30 14:22:33;;;;;;;13.57;8.80;;;;;;;;;;5081854;28;20713;-67
2023/06/30 14:24:59;;;;;;;12.32;8.68;;;;;;;;;;5077517;28;20097;-63
2023/06/30 14:27:24;;;;;;;13.30;9.70;;;;;;;;;;5078670;28;20070;-63
2023/06/30 14:29:49;;;;;;;12.90;9.13;;;;;;;;;;5088907;28;20312;-64
2023/06/30 14:32:18;;;;;;;10.70;8.03;;;;;;;;;;5091740;27;20328;-64